createdAt,value
2023-04-23T00:02:00.946Z,97614.84
2023-04-23T00:04:29.122Z,97608.50
2023-04-23T00:06:56.096Z,97604.94
2023-04-23T00:09:24.059Z,97607.00
2023-04-23T00:11:51.068Z,97601.78
2023-04-23T00:14:17.965Z,97603.75
2023-04-23T00:16:45.123Z,97600.16
2023-04-23T00:19:11.745Z,97603.44
2023-04-23T00:21:38.606Z,97590.00
2023-04-23T00:24:05.776Z,97590.09
2023-04-23T00:26:32.525Z,97593.69
2023-04-23T00:28:59.180Z,97589.16
2023-04-23T00:31:27.393Z,97593.19
2023-04-23T00:33:54.285Z,97590.03
2023-04-23T00:36:21.051Z,97587.75
2023-04-23T00:38:48.272Z,97590.91
2023-04-23T00:41:15.513Z,97581.41
2023-04-23T00:43:42.386Z,97587.75
2023-04-23T00:46:09.388Z,97585.53
2023-04-23T00:48:37.723Z,97585.03
2023-04-23T00:51:05.889Z,97584.28
2023-04-23T00:53:34.987Z,97582.63
2023-04-23T00:56:05.698Z,97589.06
2023-04-23T00:58:33.105Z,97588.28
2023-04-23T01:01:00.251Z,97579.41
2023-04-23T01:03:27.702Z,97586.59
2023-04-23T01:05:54.772Z,97589.16
2023-04-23T01:08:23.623Z,97589.81
2023-04-23T01:10:50.925Z,97587.09
2023-04-23T01:13:17.698Z,97579.75
2023-04-23T01:15:45.762Z,97591.03
2023-04-23T01:18:13.380Z,97581.63
2023-04-23T01:20:40.428Z,97589.66
2023-04-23T01:23:07.336Z,97587.97
2023-04-23T01:25:34.923Z,97587.03
2023-04-23T01:28:01.842Z,97583.00
2023-04-23T01:30:28.798Z,97582.16
2023-04-23T01:32:56.922Z,97592.66
2023-04-23T01:35:25.153Z,97596.16
2023-04-23T01:37:54.209Z,97596.41
2023-04-23T01:40:21.609Z,97596.16
2023-04-23T01:42:49.367Z,97597.53
2023-04-23T01:45:19.799Z,97596.16
2023-04-23T01:47:47.839Z,97580.09
2023-04-23T01:50:15.189Z,97583.25
2023-04-23T01:52:42.748Z,97581.66
2023-04-23T01:55:09.694Z,97584.72
2023-04-23T01:57:37.160Z,97582.06
2023-04-23T02:00:09.540Z,97578.75
2023-04-23T02:02:36.325Z,97565.25
2023-04-23T02:05:07.002Z,97569.09
2023-04-23T02:07:34.688Z,97578.06
2023-04-23T02:10:02.385Z,97576.53
2023-04-23T02:12:28.986Z,97572.75
2023-04-23T02:14:55.741Z,97576.53
2023-04-23T02:17:23.264Z,97574.75
2023-04-23T02:19:50.628Z,97569.69
2023-04-23T02:22:18.022Z,97574.13
2023-04-23T02:24:44.835Z,97578.03
2023-04-23T02:27:11.644Z,97577.28
2023-04-23T02:29:38.307Z,97569.34
2023-04-23T02:32:05.097Z,97575.38
2023-04-23T02:34:31.820Z,97573.94
2023-04-23T02:36:58.767Z,97574.97
2023-04-23T02:39:25.802Z,97572.50
2023-04-23T02:41:52.380Z,97572.50
2023-04-23T02:44:19.111Z,97568.31
2023-04-23T02:46:46.511Z,97579.38
2023-04-23T02:49:15.023Z,97571.31
2023-04-23T02:51:41.905Z,97563.44
2023-04-23T02:54:08.520Z,97561.16
2023-04-23T02:56:35.600Z,97562.44
2023-04-23T02:59:02.387Z,97566.63
2023-04-23T03:01:32.428Z,97568.94
2023-04-23T03:03:59.505Z,97563.66
2023-04-23T03:06:26.789Z,97572.53
2023-04-23T03:08:53.481Z,97570.44
2023-04-23T03:11:20.044Z,97559.53
2023-04-23T03:13:46.655Z,97564.84
2023-04-23T03:16:13.375Z,97564.38
2023-04-23T03:18:40.390Z,97570.44
2023-04-23T03:21:06.985Z,97565.25
2023-04-23T03:23:33.552Z,97565.31
2023-04-23T03:26:00.218Z,97568.06
2023-04-23T03:28:27.048Z,97563.28
2023-04-23T03:30:53.796Z,97563.00
2023-04-23T03:33:20.497Z,97568.72
2023-04-23T03:35:47.164Z,97567.34
2023-04-23T03:38:13.863Z,97565.28
2023-04-23T03:40:40.621Z,97565.16
2023-04-23T03:43:07.259Z,97571.25
2023-04-23T03:45:34.051Z,97565.50
2023-04-23T03:48:00.762Z,97568.69
2023-04-23T03:50:27.355Z,97570.41
2023-04-23T03:52:54.014Z,97567.16
2023-04-23T03:55:21.076Z,97567.16
2023-04-23T03:57:47.779Z,97564.03
2023-04-23T04:00:14.842Z,97565.09
2023-04-23T04:02:41.840Z,97567.16
2023-04-23T04:05:11.784Z,97578.59
2023-04-23T04:07:38.851Z,97570.75
2023-04-23T04:10:07.917Z,97576.63
2023-04-23T04:12:34.708Z,97581.13
2023-04-23T04:15:03.162Z,97581.78
2023-04-23T04:17:29.917Z,97578.53
2023-04-23T04:19:56.811Z,97578.25
2023-04-23T04:22:24.321Z,97585.81
2023-04-23T04:24:52.268Z,97588.31
2023-04-23T04:27:19.131Z,97594.59
2023-04-23T04:29:45.821Z,97584.50
2023-04-23T04:32:13.997Z,97587.69
2023-04-23T04:34:41.022Z,97586.28
2023-04-23T04:37:08.173Z,97588.28
2023-04-23T04:39:34.918Z,97590.00
2023-04-23T04:42:03.262Z,97596.53
2023-04-23T04:44:30.821Z,97603.03
2023-04-23T04:46:57.638Z,97600.31
2023-04-23T04:49:24.466Z,97598.06
2023-04-23T04:51:51.546Z,97601.72
2023-04-23T04:54:18.548Z,97595.59
2023-04-23T04:56:45.508Z,97598.47
2023-04-23T04:59:12.458Z,97600.34
2023-04-23T05:01:39.248Z,97601.88
2023-04-23T05:04:06.615Z,97597.75
2023-04-23T05:06:33.534Z,97605.44
2023-04-23T05:09:00.313Z,97610.56
2023-04-23T05:11:27.134Z,97615.84
2023-04-23T05:13:53.858Z,97612.19
2023-04-23T05:16:20.562Z,97611.78
2023-04-23T05:18:47.282Z,97612.09
2023-04-23T05:21:16.250Z,97621.97
2023-04-23T05:23:42.933Z,97626.56
2023-04-23T05:26:09.574Z,97617.47
2023-04-23T05:28:36.520Z,97622.84
2023-04-23T05:31:03.511Z,97626.16
2023-04-23T05:33:39.101Z,97627.09
2023-04-23T05:36:13.472Z,97627.56
2023-04-23T05:38:40.560Z,97628.41
2023-04-23T05:41:07.293Z,97627.72
2023-04-23T05:43:33.998Z,97633.97
2023-04-23T05:46:01.100Z,97634.84
2023-04-23T05:48:27.934Z,97640.97
2023-04-23T05:50:54.720Z,97644.25
2023-04-23T05:53:21.560Z,97639.25
2023-04-23T05:55:48.279Z,97653.09
2023-04-23T05:58:15.846Z,97649.22
2023-04-23T06:00:43.008Z,97653.38
2023-04-23T06:03:09.784Z,97673.75
2023-04-23T06:05:38.330Z,97707.84
2023-04-23T06:08:05.262Z,97706.69
2023-04-23T06:10:32.421Z,97711.50
2023-04-23T06:12:59.258Z,97723.16
2023-04-23T06:15:27.326Z,97723.53
2023-04-23T06:17:54.671Z,97718.25
2023-04-23T06:20:21.500Z,97719.78
2023-04-23T06:22:48.149Z,97718.44
2023-04-23T06:25:14.849Z,97721.63
2023-04-23T06:27:41.624Z,97719.03
2023-04-23T06:30:08.804Z,97720.50
2023-04-23T06:32:35.620Z,97721.91
2023-04-23T06:35:02.702Z,97719.75
2023-04-23T06:37:31.958Z,97717.19
2023-04-23T06:39:59.654Z,97716.97
2023-04-23T06:42:26.703Z,97719.31
2023-04-23T06:44:53.532Z,97718.31
2023-04-23T06:47:20.359Z,97718.94
2023-04-23T06:49:47.051Z,97712.31
2023-04-23T06:52:13.768Z,97717.66
2023-04-23T06:54:40.722Z,97711.66
2023-04-23T06:57:07.893Z,97714.59
2023-04-23T06:59:34.810Z,97708.34
2023-04-23T07:02:01.648Z,97712.94
2023-04-23T07:04:28.504Z,97719.38
2023-04-23T07:06:55.438Z,97713.81
2023-04-23T07:09:23.361Z,97706.41
2023-04-23T07:11:50.334Z,97709.84
2023-04-23T07:14:17.104Z,97712.34
2023-04-23T07:16:43.852Z,97704.97
2023-04-23T07:19:10.544Z,97710.84
2023-04-23T07:21:37.241Z,97701.47
2023-04-23T07:24:07.464Z,97712.44
2023-04-23T07:26:34.953Z,97704.78
2023-04-23T07:29:02.356Z,97704.09
2023-04-23T07:31:29.060Z,97709.59
2023-04-23T07:33:56.674Z,97717.69
2023-04-23T07:36:23.757Z,97723.94
2023-04-23T07:38:51.307Z,97722.09
2023-04-23T07:41:18.513Z,97720.31
2023-04-23T07:43:45.363Z,97720.63
2023-04-23T07:46:12.333Z,97712.03
2023-04-23T07:48:39.176Z,97716.06
2023-04-23T07:51:06.853Z,97723.22
2023-04-23T07:53:34.094Z,97718.25
2023-04-23T07:56:01.546Z,97721.44
2023-04-23T07:58:28.560Z,97715.00
2023-04-23T08:00:55.386Z,97718.00
2023-04-23T08:03:23.062Z,97722.72
2023-04-23T08:05:50.083Z,97708.78
2023-04-23T08:08:16.832Z,97702.59
2023-04-23T08:10:43.523Z,97700.78
2023-04-23T08:13:10.330Z,97690.81
2023-04-23T08:15:37.370Z,97697.91
2023-04-23T08:18:04.929Z,97705.22
2023-04-23T08:20:32.662Z,97704.00
2023-04-23T08:22:59.954Z,97709.63
2023-04-23T08:25:26.717Z,97713.63
2023-04-23T08:27:53.480Z,97706.19
2023-04-23T08:30:20.793Z,97693.56
2023-04-23T08:32:51.150Z,97704.66
2023-04-23T08:35:20.632Z,97703.19
2023-04-23T08:37:47.569Z,97695.16
2023-04-23T08:40:14.825Z,97695.88
2023-04-23T08:42:55.954Z,97704.25
2023-04-23T08:45:26.648Z,97694.56
2023-04-23T08:48:01.575Z,97691.22
2023-04-23T08:50:30.074Z,97693.97
2023-04-23T08:52:58.696Z,97699.03
2023-04-23T08:55:26.302Z,97690.94
2023-04-23T08:57:53.488Z,97700.16
2023-04-23T09:00:23.378Z,97701.75
2023-04-23T09:02:51.015Z,97692.94
2023-04-23T09:05:18.340Z,97693.00
2023-04-23T09:07:45.874Z,97693.94
2023-04-23T09:10:16.051Z,97695.03
2023-04-23T09:12:45.812Z,97689.19
2023-04-23T09:15:13.773Z,97696.44
2023-04-23T09:17:44.255Z,97695.84
2023-04-23T09:20:12.942Z,97694.66
2023-04-23T09:22:46.188Z,97683.88
2023-04-23T09:25:16.830Z,97689.25
2023-04-23T09:27:43.940Z,97676.69
2023-04-23T09:30:12.221Z,97670.97
2023-04-23T09:32:41.763Z,97671.25
2023-04-23T09:35:10.910Z,97679.53
2023-04-23T09:37:42.181Z,97677.19
2023-04-23T09:40:14.044Z,97670.13
2023-04-23T09:42:43.744Z,97658.94
2023-04-23T09:45:13.266Z,97658.25
2023-04-23T09:47:43.163Z,97666.66
2023-04-23T09:50:55.836Z,97666.97
2023-04-23T09:53:22.777Z,97660.53
2023-04-23T09:55:53.049Z,97675.28
2023-04-23T09:58:19.820Z,97673.59
2023-04-23T10:00:48.017Z,97683.16
2023-04-23T10:03:14.981Z,97678.13
2023-04-23T10:08:14.585Z,97672.81
2023-04-23T10:10:54.969Z,97682.44
2023-04-23T10:13:28.789Z,97680.78
2023-04-23T10:15:59.102Z,97677.31
2023-04-23T10:18:33.554Z,97677.19
2023-04-23T10:21:02.791Z,97679.31
2023-04-23T10:23:30.309Z,97680.84
2023-04-23T10:25:59.510Z,97681.78
2023-04-23T10:28:32.045Z,97674.50
2023-04-23T10:30:59.822Z,97669.91
2023-04-23T10:33:31.816Z,97668.91
2023-04-23T10:36:02.414Z,97660.44
2023-04-23T10:38:29.697Z,97662.81
2023-04-23T10:40:58.891Z,97657.03
2023-04-23T10:43:26.164Z,97655.69
2023-04-23T10:45:53.939Z,97649.59
2023-04-23T10:48:20.962Z,97652.97
2023-04-23T10:51:00.338Z,97640.41
2023-04-23T10:53:36.378Z,97643.47
2023-04-23T10:56:10.226Z,97630.94
2023-04-23T10:58:50.582Z,97628.38
2023-04-23T11:01:18.705Z,97628.19
2023-04-23T11:03:45.998Z,97626.44
2023-04-23T11:06:15.888Z,97639.69
2023-04-23T11:08:54.189Z,97628.88
2023-04-23T11:11:39.961Z,97630.41
2023-04-23T11:14:16.340Z,97640.38
2023-04-23T11:16:43.158Z,97628.38
2023-04-23T11:19:12.985Z,97622.03
2023-04-23T11:21:58.987Z,97616.59
2023-04-23T11:24:33.713Z,97624.00
2023-04-23T11:27:01.505Z,97616.16
2023-04-23T11:29:29.107Z,97626.06
2023-04-23T11:34:26.505Z,97616.28
2023-04-23T11:36:54.759Z,97609.19
2023-04-23T11:39:24.305Z,97603.53
2023-04-23T11:41:52.513Z,97601.00
2023-04-23T11:44:23.066Z,97599.28
2023-04-23T11:46:50.692Z,97592.16
2023-04-23T11:49:19.005Z,97582.56
2023-04-23T11:51:46.560Z,97583.00
2023-04-23T11:54:14.871Z,97574.41
2023-04-23T11:56:42.109Z,97575.00
2023-04-23T11:59:08.920Z,97567.38
2023-04-23T12:01:51.614Z,97563.06
2023-04-23T12:04:24.150Z,97563.78
2023-04-23T12:06:52.399Z,97556.75
2023-04-23T12:09:21.243Z,97563.38
2023-04-23T12:11:50.795Z,97559.91
2023-04-23T12:14:18.625Z,97566.53
2023-04-23T12:17:02.258Z,97558.63
2023-04-23T12:19:31.577Z,97556.59
2023-04-23T12:22:22.710Z,97555.63
2023-04-23T12:27:42.698Z,97559.88
2023-04-23T12:30:10.163Z,97556.16
2023-04-23T12:32:38.564Z,97551.06
2023-04-23T12:35:06.698Z,97555.19
2023-04-23T12:37:37.853Z,97543.31
2023-04-23T12:40:07.477Z,97547.56
2023-04-23T12:42:35.466Z,97547.38
2023-04-23T12:45:07.652Z,97542.09
2023-04-23T12:47:34.347Z,97535.38
2023-04-23T12:50:01.782Z,97534.63
2023-04-23T12:52:29.965Z,97540.81
2023-04-23T12:54:59.191Z,97528.75
2023-04-23T12:57:28.116Z,97523.56
2023-04-23T12:59:55.743Z,97520.34
2023-04-23T13:02:23.911Z,97516.50
2023-04-23T13:04:53.428Z,97511.81
2023-04-23T13:07:20.210Z,97506.59
2023-04-23T13:09:47.074Z,97499.81
2023-04-23T13:12:13.951Z,97500.97
2023-04-23T13:14:42.069Z,97503.09
2023-04-23T13:17:08.921Z,97503.03
2023-04-23T13:19:38.140Z,97496.72
2023-04-23T13:22:05.013Z,97499.81
2023-04-23T13:24:32.125Z,97501.75
2023-04-23T13:26:58.977Z,97494.81
2023-04-23T13:29:27.566Z,97492.22
2023-04-23T13:31:58.866Z,97492.38
2023-04-23T13:34:26.064Z,97471.00
2023-04-23T13:36:53.591Z,97463.19
2023-04-23T13:39:20.511Z,97464.19
2023-04-23T13:41:59.092Z,97461.50
2023-04-23T13:44:33.358Z,97458.69
2023-04-23T13:47:00.262Z,97456.59
2023-04-23T13:49:27.258Z,97448.63
2023-04-23T13:51:59.059Z,97442.13
2023-04-23T13:54:29.596Z,97439.47
2023-04-23T13:56:56.539Z,97429.41
2023-04-23T13:59:24.637Z,97439.34
2023-04-23T14:01:51.455Z,97427.69
2023-04-23T14:04:19.306Z,97422.88
2023-04-23T14:06:46.332Z,97427.38
2023-04-23T14:09:13.023Z,97413.22
2023-04-23T14:11:40.692Z,97407.25
2023-04-23T14:14:08.082Z,97411.56
2023-04-23T14:16:35.613Z,97416.63
2023-04-23T14:19:02.417Z,97405.56
2023-04-23T14:21:29.349Z,97408.19
2023-04-23T14:24:02.008Z,97404.91
2023-04-23T14:26:47.303Z,97396.81
2023-04-23T14:29:40.595Z,97386.13
2023-04-23T14:32:07.752Z,97384.91
2023-04-23T14:34:35.915Z,97384.22
2023-04-23T14:37:03.758Z,97375.50
2023-04-23T14:39:30.859Z,97376.56
2023-04-23T14:41:57.575Z,97367.06
2023-04-23T14:44:26.473Z,97372.56
2023-04-23T14:46:54.209Z,97373.88
2023-04-23T14:49:21.259Z,97373.25
2023-04-23T14:51:54.624Z,97373.94
2023-04-23T14:54:22.294Z,97367.47
2023-04-23T14:56:49.039Z,97362.28
2023-04-23T14:59:15.763Z,97366.84
2023-04-23T15:01:43.163Z,97359.81
2023-04-23T15:04:13.134Z,97359.63
2023-04-23T15:06:42.909Z,97353.56
2023-04-23T15:09:09.643Z,97350.22
2023-04-23T15:11:39.013Z,97351.69
2023-04-23T15:14:05.688Z,97346.66
2023-04-23T15:19:06.736Z,97345.81
2023-04-23T15:21:33.628Z,97355.03
2023-04-23T15:24:00.275Z,97344.97
2023-04-23T15:26:27.608Z,97338.41
2023-04-23T15:28:54.288Z,97333.66
2023-04-23T15:31:21.111Z,97323.09
2023-04-23T15:33:48.390Z,97329.41
2023-04-23T15:36:15.318Z,97325.09
2023-04-23T15:38:42.194Z,97328.25
2023-04-23T15:41:08.871Z,97313.91
2023-04-23T15:43:35.532Z,97317.06
2023-04-23T15:46:02.436Z,97314.31
2023-04-23T15:48:29.322Z,97316.63
2023-04-23T15:50:56.028Z,97312.19
2023-04-23T15:53:24.606Z,97303.25
2023-04-23T15:55:52.045Z,97308.75
2023-04-23T15:58:19.873Z,97312.47
2023-04-23T16:00:47.008Z,97309.53
2023-04-23T16:03:15.283Z,97317.53
2023-04-23T16:05:42.658Z,97306.63
2023-04-23T16:08:09.640Z,97314.06
2023-04-23T16:10:38.817Z,97311.81
2023-04-23T16:13:06.497Z,97304.53
2023-04-23T16:15:33.798Z,97293.06
2023-04-23T16:18:00.887Z,97286.75
2023-04-23T16:20:28.647Z,97282.22
2023-04-23T16:22:56.095Z,97284.53
2023-04-23T16:25:22.953Z,97283.53
2023-04-23T16:27:50.412Z,97279.50
2023-04-23T16:30:17.150Z,97280.25
2023-04-23T16:32:44.004Z,97274.19
2023-04-23T16:35:10.789Z,97272.69
2023-04-23T16:37:37.497Z,97270.94
2023-04-23T16:40:04.726Z,97267.28
2023-04-23T16:42:31.680Z,97260.97
2023-04-23T16:44:58.296Z,97265.28
2023-04-23T16:47:25.196Z,97257.63
2023-04-23T16:49:51.951Z,97260.00
2023-04-23T16:52:18.634Z,97259.56
2023-04-23T16:54:45.414Z,97257.28
2023-04-23T16:57:12.340Z,97256.41
2023-04-23T16:59:40.870Z,97250.44
2023-04-23T17:02:07.958Z,97254.25
2023-04-23T17:04:34.898Z,97247.50
2023-04-23T17:07:02.111Z,97253.53
2023-04-23T17:09:29.425Z,97247.25
2023-04-23T17:11:58.053Z,97252.38
2023-04-23T17:14:25.127Z,97248.13
2023-04-23T17:16:51.723Z,97244.69
2023-04-23T17:19:18.626Z,97243.84
2023-04-23T17:21:45.307Z,97239.31
2023-04-23T17:24:12.998Z,97237.31
2023-04-23T17:26:40.006Z,97238.72
2023-04-23T17:29:07.325Z,97233.72
2023-04-23T17:31:36.152Z,97230.44
2023-04-23T17:34:05.835Z,97230.97
2023-04-23T17:36:33.148Z,97222.91
2023-04-23T17:38:59.809Z,97227.72
2023-04-23T17:41:26.813Z,97218.69
2023-04-23T17:43:54.374Z,97222.19
2023-04-23T17:46:24.423Z,97220.59
2023-04-23T17:48:51.129Z,97214.47
2023-04-23T17:51:18.697Z,97213.50
2023-04-23T17:53:48.691Z,97214.34
2023-04-23T17:56:15.925Z,97214.03
2023-04-23T17:58:42.856Z,97210.06
2023-04-23T18:01:10.087Z,97219.75
2023-04-23T18:03:37.293Z,97208.88
2023-04-23T18:06:04.707Z,97217.25
2023-04-23T18:08:31.307Z,97215.34
2023-04-23T18:10:58.224Z,97217.88
2023-04-23T18:13:24.921Z,97209.19
2023-04-23T18:15:51.903Z,97209.38
2023-04-23T18:18:18.880Z,97221.53
2023-04-23T18:20:46.473Z,97216.19
2023-04-23T18:23:14.416Z,97214.81
2023-04-23T18:25:42.149Z,97218.31
2023-04-23T18:28:08.903Z,97221.28
2023-04-23T18:30:37.562Z,97206.31
2023-04-23T18:33:14.052Z,97214.00
2023-04-23T18:35:50.242Z,97213.91
2023-04-23T18:38:37.695Z,97215.06
2023-04-23T18:41:04.982Z,97216.47
2023-04-23T18:43:34.651Z,97209.88
2023-04-23T18:46:02.621Z,97205.50
2023-04-23T18:48:35.519Z,97214.19
2023-04-23T18:51:24.054Z,97217.44
2023-04-23T18:53:50.997Z,97208.91
2023-04-23T18:56:17.762Z,97204.66
2023-04-23T18:58:44.375Z,97204.94
2023-04-23T19:01:11.085Z,97205.16
2023-04-23T19:03:37.990Z,97206.19
2023-04-23T19:06:07.529Z,97215.94
2023-04-23T19:08:35.905Z,97212.22
2023-04-23T19:11:02.853Z,97202.00
2023-04-23T19:13:29.590Z,97205.31
2023-04-23T19:15:56.762Z,97202.75
2023-04-23T19:18:23.657Z,97202.06
2023-04-23T19:20:51.295Z,97211.91
2023-04-23T19:23:17.977Z,97207.34
2023-04-23T19:25:44.687Z,97201.59
2023-04-23T19:28:11.447Z,97201.44
2023-04-23T19:30:38.160Z,97194.06
2023-04-23T19:33:05.121Z,97198.09
2023-04-23T19:35:31.890Z,97196.97
2023-04-23T19:37:58.651Z,97186.22
2023-04-23T19:40:25.415Z,97189.31
2023-04-23T19:42:52.082Z,97183.91
2023-04-23T19:45:19.037Z,97185.88
2023-04-23T19:47:45.750Z,97178.34
2023-04-23T19:50:14.173Z,97182.50
2023-04-23T19:52:41.380Z,97177.59
2023-04-23T19:55:08.654Z,97175.81
2023-04-23T19:57:35.965Z,97159.91
2023-04-23T20:00:02.706Z,97161.53
2023-04-23T20:02:29.341Z,97152.38
2023-04-23T20:04:56.007Z,97155.16
2023-04-23T20:07:22.751Z,97162.19
2023-04-23T20:09:49.582Z,97160.69
2023-04-23T20:12:16.167Z,97174.53
2023-04-23T20:14:42.969Z,97162.91
2023-04-23T20:17:09.967Z,97160.28
2023-04-23T20:19:36.913Z,97162.19
2023-04-23T20:22:03.551Z,97158.25
2023-04-23T20:24:30.147Z,97164.69
2023-04-23T20:26:58.715Z,97163.75
2023-04-23T20:29:25.420Z,97163.56
2023-04-23T20:31:52.238Z,97152.97
2023-04-23T20:34:18.859Z,97152.44
2023-04-23T20:36:47.391Z,97147.13
2023-04-23T20:39:14.360Z,97147.50
2023-04-23T20:41:41.134Z,97150.88
2023-04-23T20:44:09.189Z,97150.56
2023-04-23T20:46:36.914Z,97152.78
2023-04-23T20:49:04.092Z,97154.88
2023-04-23T20:51:34.670Z,97162.25
2023-04-23T20:54:02.407Z,97158.09
2023-04-23T20:56:29.445Z,97155.53
2023-04-23T20:58:57.817Z,97163.94
2023-04-23T21:01:25.633Z,97172.06
2023-04-23T21:03:53.690Z,97192.75
2023-04-23T21:06:21.543Z,97211.94
2023-04-23T21:08:48.592Z,97233.19
2023-04-23T21:11:17.826Z,97237.09
2023-04-23T21:13:45.678Z,97251.06
2023-04-23T21:16:12.842Z,97250.63
2023-04-23T21:18:40.068Z,97271.84
2023-04-23T21:21:07.588Z,97270.72
2023-04-23T21:23:34.376Z,97274.38
2023-04-23T21:26:01.059Z,97276.69
2023-04-23T21:28:27.713Z,97260.88
2023-04-23T21:30:56.309Z,97273.13
2023-04-23T21:33:24.904Z,97269.50
2023-04-23T21:35:53.376Z,97262.13
2023-04-23T21:38:20.654Z,97259.16
2023-04-23T21:40:47.402Z,97254.38
2023-04-23T21:43:13.983Z,97255.44
2023-04-23T21:45:40.762Z,97257.47
2023-04-23T21:48:07.362Z,97259.63
2023-04-23T21:50:34.413Z,97250.41
2023-04-23T21:53:04.220Z,97215.63
2023-04-23T21:55:31.888Z,97218.72
2023-04-23T21:58:09.813Z,97228.31
2023-04-23T22:00:44.578Z,97216.25
2023-04-23T22:03:11.997Z,97203.31
2023-04-23T22:05:40.090Z,97203.31
2023-04-23T22:08:09.749Z,97198.72
2023-04-23T22:10:42.881Z,97199.56
2023-04-23T22:13:10.034Z,97191.00
2023-04-23T22:15:37.052Z,97204.75
2023-04-23T22:18:03.969Z,97209.00
2023-04-23T22:20:30.759Z,97211.72
2023-04-23T22:22:57.611Z,97212.00
2023-04-23T22:25:24.357Z,97208.59
2023-04-23T22:27:50.941Z,97210.13
2023-04-23T22:30:17.714Z,97212.44
2023-04-23T22:32:44.517Z,97213.81
2023-04-23T22:35:11.267Z,97223.47
2023-04-23T22:37:38.218Z,97220.28
2023-04-23T22:40:05.465Z,97223.69
2023-04-23T22:42:32.025Z,97213.19
2023-04-23T22:44:58.717Z,97222.94
2023-04-23T22:47:25.320Z,97220.84
2023-04-23T22:49:52.090Z,97216.72
2023-04-23T22:52:18.767Z,97212.41
2023-04-23T22:54:45.632Z,97220.72
2023-04-23T22:57:12.486Z,97216.47
2023-04-23T22:59:40.167Z,97214.88
2023-04-23T23:02:07.923Z,97204.31
2023-04-23T23:04:37.925Z,97202.53
2023-04-23T23:07:08.130Z,97205.16
2023-04-23T23:09:34.913Z,97195.84
2023-04-23T23:12:03.409Z,97174.66
2023-04-23T23:14:31.842Z,97180.09
2023-04-23T23:16:59.101Z,97192.44
2023-04-23T23:19:27.352Z,97179.22
2023-04-23T23:21:53.961Z,97181.53
2023-04-23T23:24:21.885Z,97179.50
2023-04-23T23:26:48.620Z,97179.38
2023-04-23T23:29:15.273Z,97183.91
2023-04-23T23:31:42.246Z,97178.56
2023-04-23T23:34:08.962Z,97175.31
2023-04-23T23:36:35.649Z,97174.22
2023-04-23T23:39:02.271Z,97179.97
2023-04-23T23:41:28.905Z,97177.66
2023-04-23T23:43:55.583Z,97170.56
2023-04-23T23:46:22.743Z,97180.22
2023-04-23T23:48:49.535Z,97176.31
2023-04-23T23:51:16.366Z,97179.78
2023-04-23T23:53:43.214Z,97179.13
2023-04-23T23:56:09.850Z,97177.06
2023-04-23T23:58:36.675Z,97181.28
